Time;durP1;ratioP1;P1;durP2;ratioP2;P2;SDS_P1;SDS_P2;PMS_P1;PMS_P2;Temp;Humidity;BMP_temperature;BMP_pressure;BME280_temperature;BME280_humidity;BME280_pressure;Samples;Min_cycle;Max_cycle;Signal;HPM_P1;HPM_P2
2022/04/18 00:02:19;;;;;;;7.80;3.02;;;;;;;4.71;55.67;101239.11;3597089;80;98624;-78
2022/04/18 00:07:21;;;;;;;8.00;2.72;;;;;;;4.62;56.50;101238.28;3565093;80;98635;-78
2022/04/18 00:12:22;;;;;;;7.43;2.30;;;;;;;4.53;56.52;101229.27;3596242;80;98463;-79
2022/04/18 00:17:22;;;;;;;6.40;2.23;;;;;;;4.44;57.14;101220.30;3592001;80;98613;-77
2022/04/18 00:22:23;;;;;;;9.40;2.73;;;;;;;4.37;57.64;101222.66;3596394;80;32476;-77
2022/04/18 00:27:24;;;;;;;7.83;3.23;;;;;;;4.30;58.24;101221.51;3588874;80;98453;-79
2022/04/18 00:32:25;;;;;;;11.23;2.97;;;;;;;4.18;58.53;101213.95;3598132;80;98780;-77
2022/04/18 00:37:26;;;;;;;8.43;3.10;;;;;;;4.08;59.07;101207.97;3591396;80;98616;-79
2022/04/18 00:42:27;;;;;;;8.70;2.93;;;;;;;4.02;59.56;101211.95;3595414;80;98523;-79
2022/04/18 00:47:28;;;;;;;11.20;3.23;;;;;;;3.90;60.35;101200.31;3594100;80;98408;-79
2022/04/18 00:52:31;;;;;;;8.58;2.98;;;;;;;3.80;60.79;101191.59;3598430;80;32423;-78
2022/04/18 00:57:32;;;;;;;9.27;3.10;;;;;;;3.73;60.93;101188.53;3590965;80;98549;-79
2022/04/18 01:02:33;;;;;;;6.63;2.53;;;;;;;3.65;61.59;101186.00;3569674;81;98728;-79
2022/04/18 01:07:36;;;;;;;9.83;3.07;;;;;;;3.57;62.14;101179.16;3553314;80;98506;-79
2022/04/18 01:12:38;;;;;;;8.48;3.12;;;;;;;3.47;62.66;101178.05;3560542;80;98437;-78
2022/04/18 01:17:39;;;;;;;7.33;3.58;;;;;;;3.38;63.43;101179.36;3555213;81;98468;-78
2022/04/18 01:22:42;;;;;;;6.93;3.20;;;;;;;3.31;63.63;101177.65;3561684;81;98405;-79
2022/04/18 01:33:03;;;;;;;8.43;3.70;;;;;;;3.15;64.01;101168.26;3565113;81;98534;-80
2022/04/18 01:38:04;;;;;;;9.23;3.50;;;;;;;3.08;64.74;101169.26;3554522;81;98446;-79
2022/04/18 01:43:07;;;;;;;8.53;3.40;;;;;;;2.99;64.86;101158.86;3535383;81;98438;-79
2022/04/18 01:48:08;;;;;;;7.20;3.35;;;;;;;2.86;65.45;101157.56;3555176;81;98746;-79
2022/04/18 01:53:09;;;;;;;10.10;3.50;;;;;;;2.86;65.45;101157.56;3561182;78;98548;-79
2022/04/18 01:58:10;;;;;;;7.97;3.57;;;;;;;2.79;65.91;101146.32;3557649;81;98538;-78
2022/04/18 02:03:11;;;;;;;8.53;3.40;;;;;;;2.70;66.33;101150.33;3581398;81;98255;-78
2022/04/18 02:08:12;;;;;;;7.70;2.80;;;;;;;2.63;66.44;101149.14;3576021;81;98337;-77
2022/04/18 02:13:13;;;;;;;5.27;2.57;;;;;;;2.54;66.41;101154.50;3583521;81;98453;-79
2022/04/18 02:18:14;;;;;;;8.80;3.93;;;;;;;2.48;66.52;101151.66;3574927;81;98393;-80
2022/04/18 02:23:15;;;;;;;6.70;2.80;;;;;;;2.44;66.72;101152.00;3582556;81;98410;-78
2022/04/18 02:28:16;;;;;;;8.73;3.53;;;;;;;2.39;66.68;101137.72;3573805;81;98348;-78
2022/04/18 02:33:17;;;;;;;6.50;2.50;;;;;;;2.32;67.06;101130.55;3578453;81;98306;-79
2022/04/18 02:38:18;;;;;;;8.18;3.33;;;;;;;2.22;67.29;101123.97;3575044;81;98222;-78
2022/04/18 02:43:19;;;;;;;7.53;3.00;;;;;;;2.15;67.37;101124.41;3582886;80;98385;-78
2022/04/18 02:48:20;;;;;;;8.70;3.23;;;;;;;2.09;67.54;101125.59;3568451;81;98508;-79
2022/04/18 02:53:20;;;;;;;10.97;3.67;;;;;;;2.03;67.98;101124.67;3557726;81;99053;-78
2022/04/18 02:58:21;;;;;;;8.53;2.90;;;;;;;1.96;68.01;101122.89;3570707;81;98655;-78
2022/04/18 03:03:22;;;;;;;7.93;2.70;;;;;;;1.88;68.08;101118.19;3599780;80;98298;-79
2022/04/18 03:08:23;;;;;;;7.70;3.10;;;;;;;1.80;68.26;101123.77;3600610;80;98259;-78
2022/04/18 03:13:24;;;;;;;8.00;3.00;;;;;;;1.73;68.75;101111.70;3603139;80;98975;-78
2022/04/18 03:18:26;;;;;;;8.83;3.60;;;;;;;1.65;69.23;101119.20;3596235;80;98910;-78
2022/04/18 03:23:27;;;;;;;9.03;3.47;;;;;;;1.57;69.57;101116.64;3604744;80;98457;-78
2022/04/18 03:28:28;;;;;;;9.20;2.93;;;;;;;1.48;70.06;101110.86;3588757;80;98074;-79
2022/04/18 03:33:30;;;;;;;8.23;3.20;;;;;;;1.39;70.52;101108.04;3602256;80;98095;-78
2022/04/18 03:43:51;;;;;;;8.67;3.60;;;;;;;1.28;70.99;101095.77;3602305;80;98501;-79
2022/04/18 03:48:53;;;;;;;9.45;3.00;;;;;;;1.22;71.46;101097.52;3596583;80;98869;-79
2022/04/18 03:53:54;;;;;;;8.70;3.50;;;;;;;1.18;71.77;101094.59;3605309;80;98564;-79
2022/04/18 03:58:55;;;;;;;9.00;3.53;;;;;;;1.14;71.97;101087.34;3599706;80;98438;-79
2022/04/18 04:03:56;;;;;;;8.20;3.33;;;;;;;1.10;71.94;101088.48;3599204;80;33215;-79
2022/04/18 04:08:56;;;;;;;8.20;3.33;;;;;;;1.06;72.43;101092.92;3588146;80;98351;-79
2022/04/18 04:13:57;;;;;;;11.20;3.33;;;;;;;1.02;72.87;101088.37;3595964;80;98454;-79
2022/04/18 04:18:58;;;;;;;10.60;3.57;;;;;;;1.00;73.05;101086.52;3564722;80;98602;-79
2022/04/18 04:24:00;;;;;;;7.93;3.70;;;;;;;0.96;73.15;101087.67;3591632;80;98742;-78
2022/04/18 04:29:01;;;;;;;6.60;3.30;;;;;;;0.92;73.12;101086.65;3587297;80;97844;-79
2022/04/18 04:34:02;;;;;;;9.23;3.50;;;;;;;0.90;73.80;101086.16;3596388;80;31545;-78
2022/04/18 04:39:03;;;;;;;9.57;3.60;;;;;;;0.89;74.13;101089.16;3587196;80;98922;-79
2022/04/18 04:44:06;;;;;;;10.38;3.65;;;;;;;0.86;74.49;101092.44;3594320;80;98378;-79
2022/04/18 04:49:09;;;;;;;8.58;3.50;;;;;;;0.84;75.27;101088.70;3595569;80;98719;-79
2022/04/18 04:54:09;;;;;;;9.28;4.10;;;;;;;0.87;75.44;101084.56;3587240;80;98579;-78
2022/04/18 04:59:10;;;;;;;9.67;4.00;;;;;;;0.91;75.83;101085.58;3593310;80;98512;-78
2022/04/18 05:04:11;;;;;;;11.13;4.37;;;;;;;0.96;75.91;101086.86;3579713;80;98439;-79
2022/04/18 05:09:12;;;;;;;9.00;3.90;;;;;;;1.03;76.12;101093.50;3583375;81;98442;-78
2022/04/18 05:14:14;;;;;;;9.00;4.20;;;;;;;1.11;76.66;101091.45;3576660;81;98237;-79
2022/04/18 05:19:15;;;;;;;10.23;4.10;;;;;;;1.21;76.79;101095.91;3580855;81;98519;-79
2022/04/18 05:24:16;;;;;;;9.70;3.67;;;;;;;1.29;77.09;101083.81;3570927;81;98736;-79
2022/04/18 05:29:17;;;;;;;10.20;3.97;;;;;;;1.39;77.13;101080.92;3582320;81;98509;-79
2022/04/18 05:34:18;;;;;;;10.90;4.40;;;;;;;1.54;76.66;101091.45;3564841;80;98656;-79
2022/04/18 05:39:20;;;;;;;10.50;4.43;;;;;;;1.72;76.22;101087.86;3578406;81;98561;-79
2022/04/18 05:44:20;;;;;;;11.03;4.83;;;;;;;2.01;76.57;101087.50;3576385;81;98567;-79
2022/04/18 05:49:21;;;;;;;9.87;4.50;;;;;;;2.37;75.66;101086.98;3583123;80;98650;-79
2022/04/18 05:54:22;;;;;;;12.37;5.00;;;;;;;2.78;75.11;101079.48;3575338;81;98915;-79
2022/04/18 05:59:23;;;;;;;10.03;4.50;;;;;;;3.15;75.06;101083.13;3583752;81;98811;-80
2022/04/18 06:04:24;;;;;;;10.57;4.20;;;;;;;3.48;74.42;101093.94;3578659;81;98896;-80
2022/04/18 06:09:25;;;;;;;8.30;4.17;;;;;;;3.72;73.19;101095.16;3583745;81;98447;-80
2022/04/18 06:14:26;;;;;;;13.47;5.90;;;;;;;4.00;73.25;101088.37;3580170;81;98333;-80
2022/04/18 06:19:27;;;;;;;10.97;4.83;;;;;;;4.12;71.75;101087.19;3579519;81;98754;-80
2022/04/18 06:24:27;;;;;;;11.10;4.83;;;;;;;4.26;72.08;101097.38;3577531;81;98783;-79
2022/04/18 06:29:28;;;;;;;11.90;5.03;;;;;;;4.34;71.15;101087.61;3584538;81;98649;-81
2022/04/18 06:34:30;;;;;;;10.43;5.07;;;;;;;4.58;70.33;101090.68;3570875;81;98659;-81
2022/04/18 06:39:31;;;;;;;9.83;4.60;;;;;;;4.68;70.37;101088.97;3584385;80;98351;-80
2022/04/18 06:44:32;;;;;;;11.63;5.80;;;;;;;4.84;70.93;101092.80;3575326;80;98370;-80
2022/04/18 06:49:33;;;;;;;10.43;4.97;;;;;;;4.95;69.04;101096.25;3584813;81;98685;-79
2022/04/18 06:54:34;;;;;;;10.15;4.87;;;;;;;5.01;69.25;101092.23;3579603;80;98605;-79
2022/04/18 06:59:35;;;;;;;11.57;4.97;;;;;;;5.13;68.66;101091.00;3584761;80;98629;-79
2022/04/18 07:04:36;;;;;;;14.07;6.40;;;;;;;5.25;69.24;101092.48;3575115;80;98625;-78
2022/04/18 07:09:37;;;;;;;11.77;5.40;;;;;;;5.51;69.72;101090.48;3596299;80;98970;-79
2022/04/18 07:14:38;;;;;;;12.53;5.40;;;;;;;5.64;68.26;101083.20;3590625;80;98916;-79
2022/04/18 07:19:39;;;;;;;11.17;5.63;;;;;;;5.79;68.32;101087.53;3597826;80;99346;-79
2022/04/18 07:24:40;;;;;;;11.17;5.37;;;;;;;6.06;69.28;101086.31;3584632;80;121326;-79
2022/04/18 07:29:41;;;;;;;13.23;5.53;;;;;;;6.26;67.59;101089.07;3594840;79;99214;-79
2022/04/18 07:34:42;;;;;;;12.13;5.67;;;;;;;6.39;66.53;101086.62;3595071;80;99273;-80
2022/04/18 07:39:43;;;;;;;11.83;5.47;;;;;;;6.60;67.15;101088.80;3608438;80;33210;-81
2022/04/18 07:44:44;;;;;;;12.63;5.40;;;;;;;6.79;67.22;101083.66;3566439;80;98780;-79
2022/04/18 07:49:45;;;;;;;11.03;5.95;;;;;;;6.96;64.82;101084.05;3605804;79;98680;-79
2022/04/18 07:54:46;;;;;;;12.00;5.33;;;;;;;7.07;64.26;101083.86;3586773;81;98709;-79
2022/04/18 07:59:47;;;;;;;13.47;5.53;;;;;;;7.31;64.12;101088.05;3582640;81;98600;-80
2022/04/18 08:04:47;;;;;;;13.20;5.27;;;;;;;7.57;63.07;101088.53;3564867;80;98605;-79
2022/04/18 08:09:50;;;;;;;10.00;5.37;;;;;;;7.79;62.08;101077.94;3556064;81;26224;-79
2022/04/18 08:14:51;;;;;;;9.45;5.00;;;;;;;7.96;59.78;101083.77;3525519;81;98649;-80
2022/04/18 08:19:52;;;;;;;10.80;4.77;;;;;;;8.15;61.61;101076.56;3559803;81;98533;-81
2022/04/18 08:24:53;;;;;;;10.57;5.40;;;;;;;8.49;62.48;101069.20;3551648;81;98625;-81
2022/04/18 08:29:54;;;;;;;9.57;4.63;;;;;;;9.02;63.28;101067.95;3556542;81;98734;-80
2022/04/18 08:34:55;;;;;;;9.07;4.83;;;;;;;9.68;60.58;101072.47;3549566;81;98505;-81
2022/04/18 08:39:56;;;;;;;9.30;4.23;;;;;;;10.18;59.75;101058.76;3558892;81;25876;-81
2022/04/18 08:44:59;;;;;;;11.33;5.13;;;;;;;10.81;59.72;101053.81;3551741;81;99248;-81
2022/04/18 08:55:20;;;;;;;11.35;4.40;;;;;;;12.95;59.24;101038.11;3552231;81;98873;-81
2022/04/18 09:00:22;;;;;;;8.83;4.40;;;;;;;13.78;56.14;101045.64;3552566;81;99034;-80
2022/04/18 09:05:23;;;;;;;10.00;5.10;;;;;;;14.66;54.68;101042.06;3571769;81;99219;-81
2022/04/18 09:10:24;;;;;;;8.77;4.53;;;;;;;15.04;47.59;101034.48;3584606;81;32552;-81
2022/04/18 09:15:40;;;;;;;9.20;4.80;;;;;;;15.41;50.24;101024.66;3568014;81;98704;-81
2022/04/18 09:20:48;;;;;;;8.73;5.33;;;;;;;15.89;45.43;101030.60;3585727;81;99169;-81
2022/04/18 09:26:08;;;;;;;10.58;5.70;;;;;;;15.92;44.30;101024.27;3577170;81;98897;-81
2022/04/18 09:31:12;;;;;;;9.58;5.50;;;;;;;17.01;44.53;101015.77;3578600;81;99031;-82
2022/04/18 09:36:17;;;;;;;9.63;4.40;;;;;;;17.21;42.88;101013.25;3578895;80;98894;-80
2022/04/18 09:41:24;;;;;;;7.30;4.05;;;;;;;17.69;40.78;101013.53;3611861;80;98852;-79
2022/04/18 09:46:26;;;;;;;8.08;3.85;;;;;;;18.30;40.60;101001.97;3592646;80;98913;-80
2022/04/18 09:51:29;;;;;;;5.65;3.15;;;;;;;18.73;38.69;100991.91;3624626;79;98669;-79
2022/04/18 09:56:30;;;;;;;6.42;3.20;;;;;;;18.55;36.52;100987.98;3598817;80;98924;-80
2022/04/18 10:01:33;;;;;;;5.55;3.05;;;;;;;18.83;37.46;100984.81;3602534;80;98782;-80
2022/04/18 10:06:38;;;;;;;6.53;3.30;;;;;;;19.23;34.89;100979.66;3574086;81;99209;-79
2022/04/18 10:11:40;;;;;;;5.53;2.92;;;;;;;19.05;36.28;100969.95;3572055;81;98892;-80
2022/04/18 10:16:42;;;;;;;6.72;3.20;;;;;;;19.67;36.70;100963.97;3566597;81;98970;-82
2022/04/18 10:21:47;;;;;;;5.00;3.12;;;;;;;20.05;36.15;100958.91;3578772;81;32417;-81
2022/04/18 10:27:20;;;;;;;5.45;2.52;;;;;;;20.90;35.26;100955.36;3573016;80;99134;-81
2022/04/18 10:32:27;;;;;;;6.78;3.42;;;;;;;20.38;33.06;100965.64;3576728;81;98981;-81
2022/04/18 10:37:30;;;;;;;6.47;3.22;;;;;;;20.38;33.96;100951.66;3584282;80;99184;-82
2022/04/18 10:42:38;;;;;;;8.25;3.45;;;;;;;20.33;33.25;100956.98;3596036;80;98766;-82
2022/04/18 10:48:08;;;;;;;6.33;3.17;;;;;;;19.67;32.54;100957.62;3574802;80;99297;-80
2022/04/18 10:53:19;;;;;;;5.92;2.90;;;;;;;20.31;31.62;100954.61;3584430;80;98852;-81
2022/04/18 10:58:35;;;;;;;5.47;2.85;;;;;;;20.27;30.09;100944.09;3576137;80;98893;-82
2022/04/18 11:03:46;;;;;;;6.78;3.12;;;;;;;19.35;30.27;100942.78;3568569;81;98519;-82
2022/04/18 11:09:03;;;;;;;8.03;3.65;;;;;;;18.56;31.78;100929.61;3554711;81;98717;-82
2022/04/18 11:14:23;;;;;;;7.50;3.85;;;;;;;19.21;31.75;100919.30;3563449;80;98719;-82
2022/04/18 11:19:31;;;;;;;6.67;3.62;;;;;;;19.00;30.55;100924.39;3530681;81;99079;-81
2022/04/18 11:24:43;;;;;;;5.90;3.45;;;;;;;18.75;31.40;100917.78;3550091;81;99185;-82
2022/04/18 11:29:54;;;;;;;10.25;5.00;;;;;;;19.30;30.24;100906.20;3555452;81;99463;-81
2022/04/18 11:34:58;;;;;;;7.25;3.65;;;;;;;19.16;31.18;100896.62;3547022;80;99006;-82
2022/04/18 11:40:11;;;;;;;7.20;3.85;;;;;;;19.11;30.51;100895.72;3563788;81;33376;-81
2022/04/18 11:45:26;;;;;;;7.15;3.87;;;;;;;19.69;32.97;100881.97;3554106;81;98815;-81
2022/04/18 11:50:27;;;;;;;8.28;4.35;;;;;;;19.19;30.95;100872.84;3559147;81;98727;-82
2022/04/18 11:55:29;;;;;;;6.85;4.05;;;;;;;18.80;32.03;100872.69;3555751;81;98825;-81
2022/04/18 12:11:15;;;;;;;6.08;3.00;;;;;;;19.25;31.88;100848.88;3563638;81;98943;-80
2022/04/18 12:16:19;;;;;;;7.30;3.50;;;;;;;19.73;31.36;100846.36;3557574;81;98873;-81
2022/04/18 12:21:20;;;;;;;8.50;3.55;;;;;;;19.39;31.90;100846.41;3562107;81;99047;-79
2022/04/18 12:26:26;;;;;;;6.67;3.33;;;;;;;19.28;31.86;100838.84;3555657;81;98731;-80
2022/04/18 12:31:28;;;;;;;6.97;3.90;;;;;;;19.38;32.51;100832.28;3566508;81;98996;-81
2022/04/18 12:36:35;;;;;;;9.03;4.10;;;;;;;19.68;32.34;100827.93;3547317;81;98809;-80
2022/04/18 12:41:40;;;;;;;8.58;4.08;;;;;;;19.51;32.66;100816.50;3558143;81;99262;-79
2022/04/18 12:46:42;;;;;;;8.77;3.77;;;;;;;19.09;30.32;100815.84;3530808;80;99109;-80
2022/04/18 12:51:48;;;;;;;8.33;4.12;;;;;;;18.33;31.32;100813.08;3566114;81;32424;-80
2022/04/18 12:56:51;;;;;;;8.75;4.00;;;;;;;18.44;30.91;100804.75;3564492;80;98917;-81
2022/04/18 13:02:05;;;;;;;7.95;3.80;;;;;;;17.65;30.07;100805.99;3579153;80;99176;-79
2022/04/18 13:07:08;;;;;;;7.35;3.80;;;;;;;17.45;32.30;100794.66;3560037;81;98914;-81
2022/04/18 13:12:10;;;;;;;6.97;3.40;;;;;;;17.92;32.19;100782.56;3565293;80;99169;-80
2022/04/18 13:17:11;;;;;;;8.38;4.00;;;;;;;18.08;32.64;100769.41;3560077;80;99251;-81
2022/04/18 13:22:12;;;;;;;6.85;3.55;;;;;;;17.58;31.98;100777.62;3559571;81;32397;-81
2022/04/18 13:27:26;;;;;;;7.75;3.75;;;;;;;17.53;33.57;100773.11;3558622;81;98730;-80
2022/04/18 13:32:26;;;;;;;6.42;3.40;;;;;;;17.63;33.11;100769.41;3551211;81;99151;-80
2022/04/18 13:37:29;;;;;;;10.23;4.25;;;;;;;17.57;32.68;100752.40;3549552;81;99572;-81
2022/04/18 13:42:30;;;;;;;7.85;3.92;;;;;;;17.58;33.98;100740.64;3554434;81;99026;-80
2022/04/18 13:47:31;;;;;;;8.65;3.75;;;;;;;17.22;31.83;100744.41;3552639;81;98785;-80
2022/04/18 13:52:32;;;;;;;7.72;3.70;;;;;;;16.57;32.13;100746.64;3557904;81;30620;-80
2022/04/18 13:57:33;;;;;;;8.50;3.70;;;;;;;16.69;32.18;100723.31;3544603;81;98604;-80
2022/04/18 14:02:34;;;;;;;8.63;3.42;;;;;;;16.70;32.47;100726.28;3558228;81;99090;-80
2022/04/18 14:07:34;;;;;;;7.62;3.90;;;;;;;16.54;31.76;100713.52;3526573;81;99260;-81
2022/04/18 14:12:35;;;;;;;6.75;3.58;;;;;;;16.28;31.80;100709.92;3501614;82;98863;-81
2022/04/18 14:22:56;;;;;;;7.85;3.17;;;;;;;15.96;31.68;100686.38;3532916;82;98822;-81
2022/04/18 14:27:57;;;;;;;8.67;4.50;;;;;;;16.35;34.23;100686.25;3532682;82;98774;-79
2022/04/18 14:32:58;;;;;;;9.38;3.90;;;;;;;16.08;32.03;100681.11;3528035;81;98976;-80
2022/04/18 14:37:59;;;;;;;7.12;3.45;;;;;;;15.64;32.43;100674.67;3521931;82;98770;-80
2022/04/18 14:43:00;;;;;;;9.18;4.45;;;;;;;15.39;34.11;100672.02;3530382;82;98899;-79
2022/04/18 14:48:00;;;;;;;7.25;3.90;;;;;;;15.56;35.14;100660.05;3525106;82;98837;-80
2022/04/18 14:53:10;;;;;;;7.25;3.67;;;;;;;15.46;34.70;100661.47;3527408;82;99008;-80
2022/04/18 14:58:11;;;;;;;6.85;2.80;;;;;;;15.21;35.62;100646.91;3533588;81;98681;-79
2022/04/18 15:03:12;;;;;;;7.17;3.77;;;;;;;15.45;38.45;100641.28;3538272;81;98638;-79
2022/04/18 15:08:13;;;;;;;8.28;3.47;;;;;;;15.31;34.36;100637.77;3583488;80;98615;-79
2022/04/18 15:13:14;;;;;;;8.00;4.00;;;;;;;15.04;34.83;100631.14;3592104;80;98836;-80
2022/04/18 15:18:15;;;;;;;9.30;3.67;;;;;;;14.93;36.54;100632.55;3577287;80;98872;-79
2022/04/18 15:23:16;;;;;;;8.73;3.90;;;;;;;14.61;35.14;100631.84;3555172;81;99303;-79
2022/04/18 15:28:17;;;;;;;7.63;3.20;;;;;;;14.29;35.46;100633.09;3582272;81;98604;-79
2022/04/18 15:33:18;;;;;;;7.40;3.43;;;;;;;14.26;37.04;100629.14;3592101;80;98712;-79
2022/04/18 15:38:19;;;;;;;10.13;3.33;;;;;;;13.99;35.21;100627.92;3578828;80;99337;-80
2022/04/18 15:43:20;;;;;;;8.43;3.50;;;;;;;13.99;35.21;100627.92;3589536;81;99405;-80
2022/04/18 15:48:21;;;;;;;8.10;3.98;;;;;;;13.71;35.81;100627.90;3577961;80;98864;-79
2022/04/18 15:53:22;;;;;;;7.77;3.43;;;;;;;13.52;34.60;100622.71;3593782;80;98898;-77
2022/04/18 15:58:23;;;;;;;9.73;4.37;;;;;;;13.47;35.56;100620.33;3586777;80;98581;-80
2022/04/18 16:03:24;;;;;;;9.83;3.50;;;;;;;13.34;34.98;100618.31;3594849;81;97859;-79
2022/04/18 16:08:25;;;;;;;9.73;3.35;;;;;;;13.20;35.52;100616.30;3561111;81;98698;-79
2022/04/18 16:13:30;;;;;;;6.53;2.93;;;;;;;13.17;36.94;100603.27;3558800;81;98027;-80
2022/04/18 16:18:30;;;;;;;9.60;4.07;;;;;;;12.99;35.06;100598.28;3544812;81;99122;-80
2022/04/18 16:23:31;;;;;;;9.27;3.70;;;;;;;12.99;35.06;100598.28;3550721;81;98896;-80
2022/04/18 16:28:32;;;;;;;6.17;3.23;;;;;;;12.82;36.23;100610.59;3558411;81;98854;-79
2022/04/18 16:33:33;;;;;;;6.20;3.20;;;;;;;12.64;36.67;100606.97;3562546;81;98452;-80
2022/04/18 16:38:34;;;;;;;8.57;4.50;;;;;;;12.54;36.95;100597.42;3533736;81;99032;-79
2022/04/18 16:48:54;;;;;;;7.10;3.80;;;;;;;12.50;37.53;100573.16;3551387;81;98765;-81
2022/04/18 16:53:55;;;;;;;9.90;3.90;;;;;;;12.50;37.53;100573.16;3559277;81;98854;-78
2022/04/18 16:58:56;;;;;;;9.17;3.70;;;;;;;12.42;37.13;100580.41;3552493;81;99305;-77
2022/04/18 17:03:59;;;;;;;12.20;4.77;;;;;;;12.40;38.51;100568.38;3564694;80;33228;-77
2022/04/18 17:09:00;;;;;;;7.22;2.90;;;;;;;12.36;38.61;100566.17;3577358;81;99263;-80
2022/04/18 17:14:01;;;;;;;6.57;2.87;;;;;;;12.41;39.56;100566.38;3581945;79;98605;-80
2022/04/18 17:19:03;;;;;;;9.40;3.13;;;;;;;12.42;40.08;100565.23;3575985;81;99243;-80
2022/04/18 17:24:04;;;;;;;10.17;3.43;;;;;;;12.41;40.26;100557.53;3581114;81;99317;-80
2022/04/18 17:29:05;;;;;;;7.43;3.07;;;;;;;12.36;40.40;100564.78;3571970;81;98925;-80
2022/04/18 17:34:06;;;;;;;5.67;2.60;;;;;;;12.31;40.42;100565.75;3559931;81;98918;-79
2022/04/18 17:39:07;;;;;;;8.37;3.10;;;;;;;12.26;41.70;100548.95;3581353;81;99109;-79
2022/04/18 17:44:08;;;;;;;10.13;4.03;;;;;;;12.25;42.28;100546.00;3561409;80;98802;-79
2022/04/18 17:49:11;;;;;;;10.53;4.90;;;;;;;12.23;42.48;100544.22;3581881;81;99047;-79
2022/04/18 17:59:31;;;;;;;12.30;5.65;;;;;;;12.04;42.40;100536.20;3584622;80;98914;-78
2022/04/18 18:04:32;;;;;;;17.13;7.60;;;;;;;11.94;43.21;100532.77;3576838;81;98967;-79
2022/04/18 18:09:33;;;;;;;14.73;6.63;;;;;;;11.86;43.49;100522.08;3566660;80;98989;-79
2022/04/18 18:14:34;;;;;;;13.25;6.90;;;;;;;11.68;43.36;100517.83;3558454;81;99154;-79
2022/04/18 18:19:35;;;;;;;16.57;7.60;;;;;;;11.54;44.10;100521.00;3564168;81;99393;-79
2022/04/18 18:24:36;;;;;;;23.37;11.03;;;;;;;11.32;44.85;100528.87;3554349;81;99145;-78
2022/04/18 18:29:36;;;;;;;55.60;23.45;;;;;;;11.20;45.42;100538.79;3535676;78;99185;-78
2022/04/18 18:34:37;;;;;;;157.40;65.23;;;;;;;11.08;45.84;100536.31;3554151;81;99152;-79
2022/04/18 18:39:38;;;;;;;109.22;48.92;;;;;;;10.96;46.42;100540.70;3568687;80;98977;-80
2022/04/18 18:44:39;;;;;;;58.50;28.53;;;;;;;10.78;46.43;100534.98;3551298;80;99414;-79
2022/04/18 18:49:42;;;;;;;38.23;18.60;;;;;;;10.65;46.41;100532.28;3559428;81;99670;-78
2022/04/18 18:54:43;;;;;;;35.85;18.27;;;;;;;10.54;46.69;100531.93;3557099;81;99207;-79
2022/04/18 18:59:44;;;;;;;34.13;17.87;;;;;;;10.48;47.39;100532.05;3554929;81;99210;-79
2022/04/18 19:04:45;;;;;;;37.07;18.57;;;;;;;10.35;47.44;100537.59;3551886;81;99538;-78
2022/04/18 19:09:46;;;;;;;61.33;29.50;;;;;;;10.27;47.65;100536.69;3591498;80;32313;-78
2022/04/18 19:14:48;;;;;;;90.27;42.67;;;;;;;10.15;48.46;100530.62;3585874;80;99256;-79
2022/04/18 19:30:27;;;;;;;59.18;29.50;;;;;;;9.89;49.34;100530.58;3593968;80;99095;-78
2022/04/18 19:35:29;;;;;;;35.37;17.63;;;;;;;9.86;49.78;100526.61;3588546;80;98961;-79
2022/04/18 19:40:31;;;;;;;18.67;9.63;;;;;;;9.76;49.04;100526.47;3595663;80;31708;-79
2022/04/18 19:45:33;;;;;;;17.25;7.80;;;;;;;9.62;48.97;100524.84;3589137;80;98855;-79
2022/04/18 19:50:34;;;;;;;14.23;6.50;;;;;;;9.50;48.28;100521.73;3594952;80;98893;-80
2022/04/18 19:55:37;;;;;;;15.03;6.10;;;;;;;9.42;47.51;100528.25;3589281;80;98725;-78
2022/04/18 20:00:38;;;;;;;24.15;10.58;;;;;;;9.37;47.19;100531.30;3586457;80;98739;-79
2022/04/18 20:05:40;;;;;;;27.87;12.20;;;;;;;9.38;46.01;100528.77;3560132;80;98843;-79
2022/04/18 20:10:41;;;;;;;16.77;7.50;;;;;;;9.39;46.30;100524.84;3528838;82;31647;-79
2022/04/18 20:15:43;;;;;;;15.77;6.90;;;;;;;9.34;46.29;100521.06;3519798;82;98854;-79
2022/04/18 20:20:58;;;;;;;13.83;5.65;;;;;;;9.31;46.29;100522.34;3533504;82;98512;-79
2022/04/18 20:26:01;;;;;;;15.20;6.15;;;;;;;9.31;44.93;100511.36;3518765;80;98698;-79
2022/04/18 20:31:07;;;;;;;17.65;6.85;;;;;;;9.32;45.40;100525.33;3533277;82;98695;-79
2022/04/18 20:36:08;;;;;;;10.98;4.12;;;;;;;9.31;44.25;100521.78;3527230;81;98590;-78
2022/04/18 20:41:09;;;;;;;14.63;5.43;;;;;;;9.31;44.26;100518.23;3528011;82;98701;-76
2022/04/18 20:46:10;;;;;;;10.17;3.87;;;;;;;9.29;44.43;100523.30;3528146;82;98733;-78
2022/04/18 20:51:11;;;;;;;27.27;12.50;;;;;;;9.25;44.12;100527.37;3530615;82;99030;-79
2022/04/18 21:01:32;;;;;;;11.35;4.50;;;;;;;9.18;44.19;100529.99;3542810;82;98710;-79
2022/04/18 21:06:43;;;;;;;9.45;3.77;;;;;;;9.10;42.87;100529.63;3533652;81;98797;-78
2022/04/18 21:11:47;;;;;;;8.83;3.52;;;;;;;9.08;42.48;100522.91;3557013;81;98548;-79
2022/04/18 21:16:48;;;;;;;11.90;4.00;;;;;;;9.02;42.33;100518.32;3554356;81;98537;-79
2022/04/18 21:21:50;;;;;;;8.97;3.37;;;;;;;8.99;41.86;100517.66;3565440;81;31695;-79
2022/04/18 21:26:51;;;;;;;10.77;3.90;;;;;;;8.95;42.21;100511.30;3555692;81;98704;-79
2022/04/18 21:31:52;;;;;;;10.18;3.25;;;;;;;8.90;42.02;100514.94;3563908;81;99099;-79
2022/04/18 21:36:53;;;;;;;5.35;2.33;;;;;;;8.82;41.72;100511.27;3559255;81;98681;-78
2022/04/18 21:41:54;;;;;;;7.90;3.67;;;;;;;8.70;41.68;100494.16;3566836;81;98473;-80
2022/04/18 21:46:55;;;;;;;8.43;3.10;;;;;;;8.70;41.09;100510.62;3560354;81;98798;-80
2022/04/18 21:51:56;;;;;;;6.67;2.80;;;;;;;8.65;41.52;100498.00;3569163;80;31634;-79
2022/04/18 21:56:58;;;;;;;10.37;3.80;;;;;;;8.58;41.30;100503.35;3556931;81;98460;-79
2022/04/18 22:01:59;;;;;;;9.43;3.87;;;;;;;8.53;41.48;100505.58;3563806;81;98538;-79
2022/04/18 22:07:01;;;;;;;14.40;5.30;;;;;;;8.46;41.10;100497.98;3549252;81;98484;-79
2022/04/18 22:12:02;;;;;;;10.87;3.30;;;;;;;8.43;41.35;100491.06;3546745;82;98976;-79
2022/04/18 22:17:05;;;;;;;9.17;3.67;;;;;;;8.38;41.54;100477.63;3525001;82;98577;-80
2022/04/18 22:27:31;;;;;;;16.67;5.42;;;;;;;8.29;42.38;100459.25;3533584;82;98460;-80
2022/04/18 22:32:34;;;;;;;12.67;4.97;;;;;;;8.22;42.61;100454.97;3506636;82;98603;-79
2022/04/18 22:37:35;;;;;;;12.47;4.62;;;;;;;8.16;42.79;100446.23;3531319;82;98651;-79
2022/04/18 22:42:37;;;;;;;11.57;4.00;;;;;;;8.07;43.25;100442.89;3439285;84;98636;-80
2022/04/18 22:47:40;;;;;;;9.63;4.17;;;;;;;7.97;43.58;100433.86;3419763;85;98969;-80
2022/04/18 22:52:40;;;;;;;10.00;3.85;;;;;;;7.89;43.84;100434.07;3435526;85;34063;-79
2022/04/18 22:57:41;;;;;;;12.40;3.77;;;;;;;7.86;43.95;100427.95;3422506;84;98876;-79
2022/04/18 23:02:42;;;;;;;12.27;4.80;;;;;;;7.75;43.90;100433.78;3437850;85;98559;-80
2022/04/18 23:07:44;;;;;;;12.07;4.55;;;;;;;7.69;44.47;100425.03;3427750;83;98749;-80
2022/04/18 23:12:50;;;;;;;8.90;3.57;;;;;;;7.63;44.30;100422.95;3468589;83;98697;-79
2022/04/18 23:17:49;;;;;;;10.93;3.83;;;;;;;7.54;44.60;100427.25;3477698;83;98496;-79
2022/04/18 23:22:50;;;;;;;10.15;3.40;;;;;;;7.45;44.31;100418.42;3491728;83;98684;-80
2022/04/18 23:27:51;;;;;;;12.10;6.63;;;;;;;7.37;45.15;100408.44;3494972;83;98850;-80
2022/04/18 23:32:52;;;;;;;10.80;4.60;;;;;;;7.30;45.07;100404.18;3497038;83;98533;-80
2022/04/18 23:37:55;;;;;;;7.53;3.07;;;;;;;7.24;44.86;100402.86;3483273;83;98722;-80
2022/04/18 23:42:56;;;;;;;7.90;2.98;;;;;;;7.16;45.58;100400.31;3488461;83;98588;-79
2022/04/18 23:47:57;;;;;;;9.93;3.40;;;;;;;7.10;45.43;100397.04;3486596;83;98545;-80
2022/04/18 23:52:58;;;;;;;7.03;2.60;;;;;;;7.02;45.91;100391.19;3488762;83;98431;-80
2022/04/18 23:57:59;;;;;;;8.10;3.07;;;;;;;6.97;46.38;100389.28;3484240;83;98293;-80
